createdAt,value
2023-04-24T00:04:31.569Z,10.32
2023-04-24T00:09:27.977Z,10.32
2023-04-24T00:15:38.597Z,10.32
2023-04-24T00:20:35.123Z,10.26
2023-04-24T00:25:32.036Z,10.32
2023-04-24T00:30:28.245Z,10.39
2023-04-24T00:36:38.857Z,10.2
2023-04-24T00:41:35.391Z,10.2
2023-04-24T00:46:32.389Z,10.2
2023-04-24T00:51:28.496Z,10.2
2023-04-24T00:57:39.139Z,10.2
2023-04-24T01:02:35.868Z,10.26
2023-04-24T01:07:32.806Z,10.07
2023-04-24T01:12:28.740Z,10.13
2023-04-24T01:18:39.409Z,10.2
2023-04-24T01:23:35.973Z,10.2
2023-04-24T01:28:32.688Z,10.2
2023-04-24T01:33:29.069Z,10.26
2023-04-24T01:38:25.620Z,10.2
2023-04-24T01:44:36.198Z,10.13
2023-04-24T01:49:32.887Z,9.69
2023-04-24T01:54:29.336Z,9.27
2023-04-24T01:59:25.854Z,9.1
2023-04-24T02:05:36.510Z,9.1
2023-04-24T02:10:33.104Z,9.15
2023-04-24T02:15:29.549Z,9.15
2023-04-24T02:26:36.809Z,9.21
2023-04-24T02:31:33.378Z,9.21
2023-04-24T02:36:29.884Z,9.21
2023-04-24T02:41:26.338Z,9.15
2023-04-24T02:47:37.078Z,8.92
2023-04-24T02:52:33.513Z,8.81
2023-04-24T02:57:30.149Z,8.81
2023-04-24T03:02:26.817Z,8.75
2023-04-24T03:08:37.258Z,8.75
2023-04-24T03:13:33.838Z,8.75
2023-04-24T03:18:30.273Z,8.81
2023-04-24T03:23:26.931Z,8.81
2023-04-24T03:29:37.517Z,8.75
2023-04-24T03:34:34.044Z,8.64
2023-04-24T03:39:30.587Z,8.59
2023-04-24T03:50:37.876Z,8.48
2023-04-24T03:55:34.283Z,8.42
2023-04-24T04:00:30.823Z,8.53
2023-04-24T04:05:27.392Z,8.48
2023-04-24T04:11:38.107Z,8.31
2023-04-24T04:16:34.670Z,8.26
2023-04-24T04:21:31.098Z,8.31
2023-04-24T04:26:27.659Z,8.48
2023-04-24T04:32:38.349Z,8.42
2023-04-24T04:37:34.833Z,8.48
2023-04-24T04:42:31.334Z,8.48
2023-04-24T04:47:27.926Z,8.53
2023-04-24T04:53:38.556Z,8.48
2023-04-24T04:58:35.134Z,8.53
2023-04-24T05:03:31.790Z,8.53
2023-04-24T05:08:28.160Z,8.53
2023-04-24T05:13:38.111Z,8.59
2023-04-24T05:19:35.378Z,8.59
2023-04-24T05:24:31.887Z,8.7
2023-04-24T05:29:28.488Z,8.7
2023-04-24T05:35:39.100Z,8.81
2023-04-24T05:40:36.043Z,8.81
2023-04-24T05:45:32.450Z,8.81
2023-04-24T05:50:28.703Z,8.81
2023-04-24T05:56:40.724Z,8.81
2023-04-24T06:01:36.143Z,8.81
2023-04-24T06:06:32.632Z,8.75
2023-04-24T06:11:28.964Z,8.7
2023-04-24T06:17:39.750Z,8.75
2023-04-24T06:22:36.213Z,8.75
2023-04-24T06:27:32.899Z,8.75
2023-04-24T06:32:29.292Z,8.7
2023-04-24T06:37:25.770Z,8.64
2023-04-24T06:43:36.458Z,8.64
2023-04-24T06:48:33.040Z,8.7
2023-04-24T06:53:37.766Z,8.53
2023-04-24T06:58:34.503Z,8.37
2023-04-24T07:03:30.869Z,8.31
2023-04-24T07:08:27.234Z,8.21
2023-04-24T07:14:37.913Z,8.15
2023-04-24T07:19:34.705Z,8.15
2023-04-24T07:24:31.009Z,8.26
2023-04-24T07:29:27.551Z,8.15
2023-04-24T07:35:38.261Z,8.1
2023-04-24T07:40:34.708Z,8.1
2023-04-24T07:45:31.207Z,8.05
2023-04-24T07:50:27.795Z,8.1
2023-04-24T07:56:38.437Z,8
2023-04-24T08:01:34.989Z,8.05
2023-04-24T08:06:31.766Z,8.05
2023-04-24T08:11:28.172Z,8
2023-04-24T08:17:38.714Z,8
2023-04-24T08:22:35.293Z,7.89
2023-04-24T08:27:31.745Z,7.84
2023-04-24T08:32:28.407Z,7.74
2023-04-24T08:38:39.847Z,7.54
2023-04-24T08:43:35.503Z,7.54
2023-04-24T08:48:32.457Z,7.49
2023-04-24T08:53:28.549Z,7.54
2023-04-24T08:59:39.292Z,7.54
2023-04-24T09:04:36.015Z,7.3
2023-04-24T09:09:32.488Z,7.11
2023-04-24T09:14:28.849Z,7.2
2023-04-24T09:19:25.346Z,7.2
2023-04-24T09:25:36.025Z,7.16
2023-04-24T09:30:32.786Z,7.16
2023-04-24T09:35:29.101Z,7.25
2023-04-24T09:40:25.668Z,7.25
2023-04-24T09:46:36.462Z,7.3
2023-04-24T09:56:29.462Z,7.4
2023-04-24T10:01:25.979Z,7.44
2023-04-24T10:07:36.590Z,7.49
2023-04-24T10:12:33.173Z,7.54
2023-04-24T10:17:29.685Z,7.59
2023-04-24T10:22:26.230Z,7.69
2023-04-24T10:28:36.822Z,7.64
2023-04-24T10:33:33.323Z,7.74
2023-04-24T10:38:29.913Z,7.69
2023-04-24T10:43:26.399Z,7.74
2023-04-24T10:49:37.170Z,7.84
2023-04-24T10:54:33.574Z,7.89
2023-04-24T10:59:30.168Z,7.89
2023-04-24T11:04:26.686Z,7.95
2023-04-24T11:10:37.341Z,8.15
2023-04-24T11:15:33.831Z,8.26
2023-04-24T11:20:30.412Z,8.59
2023-04-24T11:25:26.929Z,8.59
2023-04-24T11:31:38.185Z,8.59
2023-04-24T11:36:34.176Z,8.42
2023-04-24T11:41:30.646Z,8.15
2023-04-24T11:46:27.276Z,8.05
2023-04-24T11:52:38.182Z,7.95
2023-04-24T11:57:34.426Z,8
2023-04-24T12:02:31.030Z,7.95
2023-04-24T12:07:27.540Z,8
2023-04-24T12:13:38.347Z,8.21
2023-04-24T12:18:34.661Z,8.53
2023-04-24T12:23:31.175Z,8.98
2023-04-24T12:28:27.787Z,9.21
2023-04-24T12:34:38.533Z,8.98
2023-04-24T12:39:34.916Z,8.87
2023-04-24T12:44:31.477Z,8.98
2023-04-24T12:49:27.981Z,8.92
2023-04-24T12:55:38.731Z,8.92
2023-04-24T13:00:35.320Z,8.81
2023-04-24T13:05:31.812Z,8.7
2023-04-24T13:10:28.703Z,8.81
2023-04-24T13:16:39.027Z,10.52
2023-04-24T13:21:35.534Z,10
2023-04-24T13:26:32.004Z,9.51
2023-04-24T13:31:28.889Z,9.69
2023-04-24T13:37:39.218Z,9.45
2023-04-24T13:42:35.703Z,9.45
2023-04-24T13:47:32.264Z,9.39
2023-04-24T13:52:28.930Z,9.33
2023-04-24T13:57:25.338Z,9.21
2023-04-24T14:03:36.126Z,8.98
2023-04-24T14:08:32.624Z,9.82
2023-04-24T14:13:29.177Z,11.69
2023-04-24T14:18:25.663Z,9.76
2023-04-24T14:24:36.226Z,9.63
2023-04-24T14:34:29.358Z,10
2023-04-24T14:39:25.926Z,11.01
2023-04-24T14:45:36.594Z,9.33
2023-04-24T14:50:33.299Z,9.3
2023-04-24T14:55:29.551Z,9.29
2023-04-24T15:00:26.106Z,9.05
2023-04-24T15:06:36.865Z,9.48
2023-04-24T15:11:33.425Z,8.38
2023-04-24T15:16:29.899Z,8.61
2023-04-24T15:21:26.412Z,7.75
2023-04-24T15:27:37.076Z,7.94
2023-04-24T15:32:33.829Z,7.95
2023-04-24T15:37:30.176Z,8.43
2023-04-24T15:42:26.629Z,8.56
2023-04-24T15:48:37.343Z,8.35
2023-04-24T15:53:33.800Z,8.22
2023-04-24T15:58:30.406Z,7.86
2023-04-24T16:03:27.187Z,7.76
2023-04-24T16:09:37.560Z,8.01
2023-04-24T16:14:34.084Z,7.5
2023-04-24T16:19:30.704Z,8.27
2023-04-24T16:24:27.218Z,8.67
2023-04-24T16:30:37.844Z,8.36
2023-04-24T16:35:34.365Z,8.83
2023-04-24T16:40:31.077Z,8.83
2023-04-24T16:45:27.457Z,9.31
2023-04-24T16:51:38.063Z,9.64
2023-04-24T16:56:34.597Z,9.67
2023-04-24T17:01:31.188Z,9.22
2023-04-24T17:06:27.761Z,9.48
2023-04-24T17:12:38.335Z,9.14
2023-04-24T17:17:34.861Z,9.42
2023-04-24T17:22:31.353Z,9.17
2023-04-24T17:27:27.996Z,8.95
2023-04-24T17:33:38.603Z,8.74
2023-04-24T17:38:35.140Z,8.57
2023-04-24T17:43:31.645Z,8.8
2023-04-24T17:48:28.217Z,8.87
2023-04-24T17:54:38.913Z,8.86
2023-04-24T17:59:35.405Z,9.14
2023-04-24T18:04:32.046Z,8.88
2023-04-24T18:09:28.492Z,9.16
2023-04-24T18:15:39.145Z,8.98
2023-04-24T18:20:35.711Z,8.97
2023-04-24T18:25:32.502Z,8.82
2023-04-24T18:30:28.797Z,8.99
2023-04-24T18:35:25.389Z,8.99
2023-04-24T18:41:35.932Z,8.92
2023-04-24T18:46:32.464Z,9.06
2023-04-24T18:51:29.044Z,9.1
2023-04-24T18:56:25.587Z,9.04
2023-04-24T19:02:36.364Z,9.04
2023-04-24T19:12:29.244Z,8.98
2023-04-24T19:17:25.858Z,8.92
2023-04-24T19:23:36.555Z,8.87
2023-04-24T19:28:33.156Z,8.81
2023-04-24T19:33:29.622Z,8.87
2023-04-24T19:44:36.708Z,8.75
2023-04-24T19:49:33.431Z,8.75
2023-04-24T19:54:29.872Z,8.7
2023-04-24T19:59:26.326Z,8.7
2023-04-24T20:05:36.979Z,8.64
2023-04-24T20:10:33.664Z,8.59
2023-04-24T20:15:30.042Z,8.59
2023-04-24T20:20:26.609Z,8.59
2023-04-24T20:26:37.232Z,8.53
2023-04-24T20:31:33.847Z,8.53
2023-04-24T20:36:30.282Z,8.53
2023-04-24T20:41:26.845Z,8.53
2023-04-24T20:47:37.564Z,8.48
2023-04-24T20:52:34.027Z,8.48
2023-04-24T20:57:30.579Z,8.42
2023-04-24T21:02:27.206Z,8.37
2023-04-24T21:08:37.823Z,8.37
2023-04-24T21:13:34.296Z,8.31
2023-04-24T21:18:30.807Z,8.26
2023-04-24T21:23:27.391Z,8.21
2023-04-24T21:29:38.046Z,8.15
2023-04-24T21:34:34.664Z,8.15
2023-04-24T21:39:31.098Z,8.05
2023-04-24T21:44:27.704Z,8
2023-04-24T21:50:38.325Z,7.89
2023-04-24T21:55:34.824Z,7.79
2023-04-24T22:00:31.350Z,7.74
2023-04-24T22:05:27.990Z,7.69
2023-04-24T22:11:38.710Z,7.64
2023-04-24T22:16:35.209Z,7.64
2023-04-24T22:21:31.684Z,7.69
2023-04-24T22:26:28.192Z,7.64
2023-04-24T22:32:38.871Z,7.54
2023-04-24T22:37:35.360Z,7.54
2023-04-24T22:42:31.914Z,7.4
2023-04-24T22:47:28.619Z,7.44
2023-04-24T22:53:39.107Z,7.4
2023-04-24T22:58:35.646Z,7.4
2023-04-24T23:03:32.317Z,7.35
2023-04-24T23:08:28.712Z,7.4
2023-04-24T23:13:25.340Z,7.35
2023-04-24T23:19:35.899Z,7.35
2023-04-24T23:24:32.431Z,7.3
2023-04-24T23:29:29.027Z,7.4
2023-04-24T23:34:25.518Z,7.4
2023-04-24T23:40:36.209Z,7.44
2023-04-24T23:50:29.298Z,7.44
2023-04-24T23:55:25.768Z,7.4
